sensor_id;sensor_type;location;lat;lon;timestamp;temperature;humidity
32524;DHT22;18965;52.242;20.886;2023-05-25T00:00:58;15.80;74.90
32524;DHT22;18965;52.242;20.886;2023-05-25T00:03:24;15.70;75.00
32524;DHT22;18965;52.242;20.886;2023-05-25T00:05:53;15.70;75.10
32524;DHT22;18965;52.242;20.886;2023-05-25T00:08:19;15.70;75.20
32524;DHT22;18965;52.242;20.886;2023-05-25T00:10:45;15.70;75.30
32524;DHT22;18965;52.242;20.886;2023-05-25T00:13:12;15.60;75.20
32524;DHT22;18965;52.242;20.886;2023-05-25T00:15:39;15.60;75.40
32524;DHT22;18965;52.242;20.886;2023-05-25T00:18:06;15.60;75.40
32524;DHT22;18965;52.242;20.886;2023-05-25T00:20:33;15.60;75.50
32524;DHT22;18965;52.242;20.886;2023-05-25T00:22:59;15.50;75.50
32524;DHT22;18965;52.242;20.886;2023-05-25T00:25:28;15.60;75.70
32524;DHT22;18965;52.242;20.886;2023-05-25T00:27:55;15.60;75.80
32524;DHT22;18965;52.242;20.886;2023-05-25T00:30:22;15.60;75.90
32524;DHT22;18965;52.242;20.886;2023-05-25T00:32:49;15.60;75.90
32524;DHT22;18965;52.242;20.886;2023-05-25T00:35:16;15.60;75.90
32524;DHT22;18965;52.242;20.886;2023-05-25T00:37:42;15.50;75.90
32524;DHT22;18965;52.242;20.886;2023-05-25T00:40:13;15.60;76.10
32524;DHT22;18965;52.242;20.886;2023-05-25T00:42:42;15.60;76.20
32524;DHT22;18965;52.242;20.886;2023-05-25T00:45:09;15.60;76.20
32524;DHT22;18965;52.242;20.886;2023-05-25T00:47:38;15.60;76.20
32524;DHT22;18965;52.242;20.886;2023-05-25T00:50:08;15.60;76.20
32524;DHT22;18965;52.242;20.886;2023-05-25T00:52:35;15.60;76.30
32524;DHT22;18965;52.242;20.886;2023-05-25T00:55:02;15.60;76.40
32524;DHT22;18965;52.242;20.886;2023-05-25T00:57:32;15.60;76.40
32524;DHT22;18965;52.242;20.886;2023-05-25T01:00:02;15.60;77.20
32524;DHT22;18965;52.242;20.886;2023-05-25T01:02:36;15.60;76.50
32524;DHT22;18965;52.242;20.886;2023-05-25T01:05:05;15.60;76.70
32524;DHT22;18965;52.242;20.886;2023-05-25T01:07:35;15.60;76.80
32524;DHT22;18965;52.242;20.886;2023-05-25T01:10:06;15.60;76.80
32524;DHT22;18965;52.242;20.886;2023-05-25T01:12:36;15.60;76.90
32524;DHT22;18965;52.242;20.886;2023-05-25T01:15:04;15.60;77.00
32524;DHT22;18965;52.242;20.886;2023-05-25T01:17:31;15.60;77.00
32524;DHT22;18965;52.242;20.886;2023-05-25T01:23:20;15.60;77.20
32524;DHT22;18965;52.242;20.886;2023-05-25T01:25:53;15.60;77.00
32524;DHT22;18965;52.242;20.886;2023-05-25T01:28:29;15.60;77.20
32524;DHT22;18965;52.242;20.886;2023-05-25T01:30:58;15.60;77.30
32524;DHT22;18965;52.242;20.886;2023-05-25T01:33:25;15.60;77.20
32524;DHT22;18965;52.242;20.886;2023-05-25T01:35:53;15.60;78.10
32524;DHT22;18965;52.242;20.886;2023-05-25T01:38:20;15.60;77.40
32524;DHT22;18965;52.242;20.886;2023-05-25T01:40:47;15.60;77.50
32524;DHT22;18965;52.242;20.886;2023-05-25T01:43:15;15.60;77.60
32524;DHT22;18965;52.242;20.886;2023-05-25T01:45:41;15.60;77.70
32524;DHT22;18965;52.242;20.886;2023-05-25T01:48:32;15.60;77.80
32524;DHT22;18965;52.242;20.886;2023-05-25T01:51:06;15.60;77.90
32524;DHT22;18965;52.242;20.886;2023-05-25T01:53:39;15.60;77.80
32524;DHT22;18965;52.242;20.886;2023-05-25T01:56:09;15.60;77.70
32524;DHT22;18965;52.242;20.886;2023-05-25T01:58:44;15.70;77.80
32524;DHT22;18965;52.242;20.886;2023-05-25T02:01:13;15.70;77.90
32524;DHT22;18965;52.242;20.886;2023-05-25T02:03:41;15.60;77.80
32524;DHT22;18965;52.242;20.886;2023-05-25T02:06:09;15.60;77.80
32524;DHT22;18965;52.242;20.886;2023-05-25T02:08:37;15.60;77.80
32524;DHT22;18965;52.242;20.886;2023-05-25T02:11:04;15.70;78.00
32524;DHT22;18965;52.242;20.886;2023-05-25T02:13:30;15.70;77.90
32524;DHT22;18965;52.242;20.886;2023-05-25T02:15:57;15.70;78.00
32524;DHT22;18965;52.242;20.886;2023-05-25T02:18:23;15.70;78.00
32524;DHT22;18965;52.242;20.886;2023-05-25T02:20:49;15.70;78.10
32524;DHT22;18965;52.242;20.886;2023-05-25T02:23:17;15.70;78.00
32524;DHT22;18965;52.242;20.886;2023-05-25T02:25:44;15.70;78.00
32524;DHT22;18965;52.242;20.886;2023-05-25T02:28:11;15.70;78.00
32524;DHT22;18965;52.242;20.886;2023-05-25T02:30:38;15.70;78.00
32524;DHT22;18965;52.242;20.886;2023-05-25T02:33:04;15.70;78.00
32524;DHT22;18965;52.242;20.886;2023-05-25T02:35:31;15.70;78.00
32524;DHT22;18965;52.242;20.886;2023-05-25T02:37:57;15.70;78.00
32524;DHT22;18965;52.242;20.886;2023-05-25T02:40:23;15.70;78.10
32524;DHT22;18965;52.242;20.886;2023-05-25T02:42:50;15.70;78.20
32524;DHT22;18965;52.242;20.886;2023-05-25T02:45:17;15.70;78.20
32524;DHT22;18965;52.242;20.886;2023-05-25T02:47:43;15.70;78.20
32524;DHT22;18965;52.242;20.886;2023-05-25T02:50:10;15.70;78.20
32524;DHT22;18965;52.242;20.886;2023-05-25T02:52:37;15.70;78.10
32524;DHT22;18965;52.242;20.886;2023-05-25T02:55:05;15.70;78.10
32524;DHT22;18965;52.242;20.886;2023-05-25T02:57:32;15.80;78.30
32524;DHT22;18965;52.242;20.886;2023-05-25T02:59:59;15.80;78.10
32524;DHT22;18965;52.242;20.886;2023-05-25T03:02:26;15.80;78.20
32524;DHT22;18965;52.242;20.886;2023-05-25T03:04:53;15.80;78.20
32524;DHT22;18965;52.242;20.886;2023-05-25T03:07:20;15.80;78.20
32524;DHT22;18965;52.242;20.886;2023-05-25T03:09:47;15.70;78.10
32524;DHT22;18965;52.242;20.886;2023-05-25T03:12:14;15.80;78.20
32524;DHT22;18965;52.242;20.886;2023-05-25T03:14:40;15.80;78.20
32524;DHT22;18965;52.242;20.886;2023-05-25T03:17:06;15.80;78.20
32524;DHT22;18965;52.242;20.886;2023-05-25T03:19:32;15.80;78.10
32524;DHT22;18965;52.242;20.886;2023-05-25T03:22:00;15.70;78.00
32524;DHT22;18965;52.242;20.886;2023-05-25T03:24:28;15.70;78.00
32524;DHT22;18965;52.242;20.886;2023-05-25T03:26:54;15.70;78.10
32524;DHT22;18965;52.242;20.886;2023-05-25T03:29:21;15.80;78.30
32524;DHT22;18965;52.242;20.886;2023-05-25T03:31:47;15.80;78.30
32524;DHT22;18965;52.242;20.886;2023-05-25T03:34:13;15.80;78.30
32524;DHT22;18965;52.242;20.886;2023-05-25T03:36:40;15.70;78.20
32524;DHT22;18965;52.242;20.886;2023-05-25T03:39:10;15.70;78.10
32524;DHT22;18965;52.242;20.886;2023-05-25T03:41:37;15.80;78.20
32524;DHT22;18965;52.242;20.886;2023-05-25T03:44:03;15.70;78.10
32524;DHT22;18965;52.242;20.886;2023-05-25T03:46:30;15.80;78.20
32524;DHT22;18965;52.242;20.886;2023-05-25T03:48:56;15.80;78.20
32524;DHT22;18965;52.242;20.886;2023-05-25T03:51:23;15.80;78.30
32524;DHT22;18965;52.242;20.886;2023-05-25T03:53:50;15.80;78.30
32524;DHT22;18965;52.242;20.886;2023-05-25T03:56:16;15.80;78.50
32524;DHT22;18965;52.242;20.886;2023-05-25T03:58:42;15.80;78.30
32524;DHT22;18965;52.242;20.886;2023-05-25T04:01:09;15.90;78.40
32524;DHT22;18965;52.242;20.886;2023-05-25T04:03:37;15.90;78.50
32524;DHT22;18965;52.242;20.886;2023-05-25T04:06:04;15.90;78.40
32524;DHT22;18965;52.242;20.886;2023-05-25T04:08:30;15.90;78.40
32524;DHT22;18965;52.242;20.886;2023-05-25T04:10:58;15.90;78.30
32524;DHT22;18965;52.242;20.886;2023-05-25T04:13:25;16.00;78.40
32524;DHT22;18965;52.242;20.886;2023-05-25T04:15:53;16.00;78.40
32524;DHT22;18965;52.242;20.886;2023-05-25T04:18:20;16.00;78.30
32524;DHT22;18965;52.242;20.886;2023-05-25T04:24:08;16.10;78.40
32524;DHT22;18965;52.242;20.886;2023-05-25T04:26:35;16.20;78.10
32524;DHT22;18965;52.242;20.886;2023-05-25T04:29:04;16.20;78.00
32524;DHT22;18965;52.242;20.886;2023-05-25T04:31:31;16.20;77.90
32524;DHT22;18965;52.242;20.886;2023-05-25T04:33:58;16.30;77.90
32524;DHT22;18965;52.242;20.886;2023-05-25T04:36:25;16.30;77.80
32524;DHT22;18965;52.242;20.886;2023-05-25T04:38:51;16.30;77.70
32524;DHT22;18965;52.242;20.886;2023-05-25T04:41:20;16.40;77.60
32524;DHT22;18965;52.242;20.886;2023-05-25T04:43:46;16.40;77.40
32524;DHT22;18965;52.242;20.886;2023-05-25T04:46:15;16.40;77.40
32524;DHT22;18965;52.242;20.886;2023-05-25T04:48:42;16.40;77.30
32524;DHT22;18965;52.242;20.886;2023-05-25T04:51:11;16.40;77.10
32524;DHT22;18965;52.242;20.886;2023-05-25T04:53:37;16.40;77.10
32524;DHT22;18965;52.242;20.886;2023-05-25T04:56:19;16.40;77.10
32524;DHT22;18965;52.242;20.886;2023-05-25T04:58:51;16.40;77.10
32524;DHT22;18965;52.242;20.886;2023-05-25T05:01:18;16.40;77.10
32524;DHT22;18965;52.242;20.886;2023-05-25T05:03:45;16.40;77.10
32524;DHT22;18965;52.242;20.886;2023-05-25T05:06:12;16.40;77.10
32524;DHT22;18965;52.242;20.886;2023-05-25T05:08:38;16.40;77.00
32524;DHT22;18965;52.242;20.886;2023-05-25T05:11:06;16.50;77.10
32524;DHT22;18965;52.242;20.886;2023-05-25T05:13:32;16.40;77.10
32524;DHT22;18965;52.242;20.886;2023-05-25T05:15:59;16.40;77.10
32524;DHT22;18965;52.242;20.886;2023-05-25T05:18:26;16.40;77.10
32524;DHT22;18965;52.242;20.886;2023-05-25T05:20:54;16.50;77.20
32524;DHT22;18965;52.242;20.886;2023-05-25T05:23:20;16.50;77.20
32524;DHT22;18965;52.242;20.886;2023-05-25T05:25:46;16.50;77.10
32524;DHT22;18965;52.242;20.886;2023-05-25T05:28:13;16.50;77.10
32524;DHT22;18965;52.242;20.886;2023-05-25T05:30:40;16.60;77.10
32524;DHT22;18965;52.242;20.886;2023-05-25T05:33:06;16.60;76.90
32524;DHT22;18965;52.242;20.886;2023-05-25T05:35:32;16.60;76.90
32524;DHT22;18965;52.242;20.886;2023-05-25T05:37:59;16.60;76.80
32524;DHT22;18965;52.242;20.886;2023-05-25T05:40:26;16.60;76.80
32524;DHT22;18965;52.242;20.886;2023-05-25T05:42:53;16.70;77.50
32524;DHT22;18965;52.242;20.886;2023-05-25T05:45:19;16.80;76.70
32524;DHT22;18965;52.242;20.886;2023-05-25T05:47:46;16.70;76.60
32524;DHT22;18965;52.242;20.886;2023-05-25T05:50:13;16.70;77.30
32524;DHT22;18965;52.242;20.886;2023-05-25T05:52:39;16.80;76.60
32524;DHT22;18965;52.242;20.886;2023-05-25T05:55:07;16.80;76.50
32524;DHT22;18965;52.242;20.886;2023-05-25T05:57:34;16.80;76.40
32524;DHT22;18965;52.242;20.886;2023-05-25T06:00:01;16.80;76.30
32524;DHT22;18965;52.242;20.886;2023-05-25T06:02:31;16.80;76.20
32524;DHT22;18965;52.242;20.886;2023-05-25T06:04:58;16.90;76.20
32524;DHT22;18965;52.242;20.886;2023-05-25T06:07:26;16.80;76.00
32524;DHT22;18965;52.242;20.886;2023-05-25T06:09:56;16.80;76.00
32524;DHT22;18965;52.242;20.886;2023-05-25T06:12:23;16.90;76.10
32524;DHT22;18965;52.242;20.886;2023-05-25T06:14:49;16.90;76.10
32524;DHT22;18965;52.242;20.886;2023-05-25T06:17:17;16.90;76.10
32524;DHT22;18965;52.242;20.886;2023-05-25T06:19:44;17.00;76.10
32524;DHT22;18965;52.242;20.886;2023-05-25T06:22:10;17.00;75.90
32524;DHT22;18965;52.242;20.886;2023-05-25T06:24:37;17.10;75.80
32524;DHT22;18965;52.242;20.886;2023-05-25T06:27:03;17.10;75.60
32524;DHT22;18965;52.242;20.886;2023-05-25T06:29:30;17.10;75.50
32524;DHT22;18965;52.242;20.886;2023-05-25T06:31:57;17.20;75.40
32524;DHT22;18965;52.242;20.886;2023-05-25T06:34:23;17.10;75.20
32524;DHT22;18965;52.242;20.886;2023-05-25T06:36:51;17.20;75.40
32524;DHT22;18965;52.242;20.886;2023-05-25T06:39:18;17.20;75.30
32524;DHT22;18965;52.242;20.886;2023-05-25T06:41:45;17.20;75.20
32524;DHT22;18965;52.242;20.886;2023-05-25T06:44:12;17.20;75.10
32524;DHT22;18965;52.242;20.886;2023-05-25T06:46:39;17.30;75.10
32524;DHT22;18965;52.242;20.886;2023-05-25T06:49:05;17.30;75.00
32524;DHT22;18965;52.242;20.886;2023-05-25T06:51:32;17.30;74.90
32524;DHT22;18965;52.242;20.886;2023-05-25T06:53:59;17.30;74.90
32524;DHT22;18965;52.242;20.886;2023-05-25T06:56:26;17.30;74.90
32524;DHT22;18965;52.242;20.886;2023-05-25T06:58:52;17.40;74.90
32524;DHT22;18965;52.242;20.886;2023-05-25T07:01:19;17.30;74.90
32524;DHT22;18965;52.242;20.886;2023-05-25T07:03:45;17.30;74.80
32524;DHT22;18965;52.242;20.886;2023-05-25T07:06:11;17.40;74.80
32524;DHT22;18965;52.242;20.886;2023-05-25T07:08:38;17.40;74.70
32524;DHT22;18965;52.242;20.886;2023-05-25T07:11:05;17.40;74.80
32524;DHT22;18965;52.242;20.886;2023-05-25T07:13:33;17.40;74.70
32524;DHT22;18965;52.242;20.886;2023-05-25T07:16:00;17.40;74.60
32524;DHT22;18965;52.242;20.886;2023-05-25T07:18:27;17.50;74.70
32524;DHT22;18965;52.242;20.886;2023-05-25T07:20:54;17.50;74.60
32524;DHT22;18965;52.242;20.886;2023-05-25T07:23:21;17.60;74.50
32524;DHT22;18965;52.242;20.886;2023-05-25T07:25:47;17.60;74.30
32524;DHT22;18965;52.242;20.886;2023-05-25T07:28:14;17.70;74.20
32524;DHT22;18965;52.242;20.886;2023-05-25T07:34:03;17.80;74.20
32524;DHT22;18965;52.242;20.886;2023-05-25T07:36:29;17.80;74.00
32524;DHT22;18965;52.242;20.886;2023-05-25T07:38:57;17.80;74.00
32524;DHT22;18965;52.242;20.886;2023-05-25T07:41:23;17.80;74.00
32524;DHT22;18965;52.242;20.886;2023-05-25T07:43:51;17.90;73.90
32524;DHT22;18965;52.242;20.886;2023-05-25T07:46:18;17.90;73.80
32524;DHT22;18965;52.242;20.886;2023-05-25T07:48:50;18.00;73.70
32524;DHT22;18965;52.242;20.886;2023-05-25T07:51:17;18.10;73.50
32524;DHT22;18965;52.242;20.886;2023-05-25T07:53:43;18.20;73.50
32524;DHT22;18965;52.242;20.886;2023-05-25T07:56:10;18.30;73.40
32524;DHT22;18965;52.242;20.886;2023-05-25T07:58:36;18.40;73.10
32524;DHT22;18965;52.242;20.886;2023-05-25T08:01:03;18.50;73.10
32524;DHT22;18965;52.242;20.886;2023-05-25T08:03:30;18.50;72.90
32524;DHT22;18965;52.242;20.886;2023-05-25T08:05:56;18.70;72.90
32524;DHT22;18965;52.242;20.886;2023-05-25T08:08:22;18.80;72.70
32524;DHT22;18965;52.242;20.886;2023-05-25T08:10:49;19.00;72.60
32524;DHT22;18965;52.242;20.886;2023-05-25T08:13:16;19.10;72.30
32524;DHT22;18965;52.242;20.886;2023-05-25T08:15:43;19.30;72.00
32524;DHT22;18965;52.242;20.886;2023-05-25T08:18:09;19.40;71.60
32524;DHT22;18965;52.242;20.886;2023-05-25T08:20:35;19.60;71.20
32524;DHT22;18965;52.242;20.886;2023-05-25T08:23:02;19.80;70.80
32524;DHT22;18965;52.242;20.886;2023-05-25T08:25:29;20.00;70.50
32524;DHT22;18965;52.242;20.886;2023-05-25T08:27:56;20.20;70.10
32524;DHT22;18965;52.242;20.886;2023-05-25T08:30:23;20.30;69.60
32524;DHT22;18965;52.242;20.886;2023-05-25T08:32:49;20.40;69.10
32524;DHT22;18965;52.242;20.886;2023-05-25T08:35:16;20.50;68.90
32524;DHT22;18965;52.242;20.886;2023-05-25T08:37:43;20.60;68.50
32524;DHT22;18965;52.242;20.886;2023-05-25T08:40:14;20.80;68.30
32524;DHT22;18965;52.242;20.886;2023-05-25T08:42:45;20.90;67.90
32524;DHT22;18965;52.242;20.886;2023-05-25T08:45:11;21.00;67.50
32524;DHT22;18965;52.242;20.886;2023-05-25T08:47:42;21.00;67.10
32524;DHT22;18965;52.242;20.886;2023-05-25T08:50:11;21.00;66.90
32524;DHT22;18965;52.242;20.886;2023-05-25T08:52:38;21.10;66.70
32524;DHT22;18965;52.242;20.886;2023-05-25T08:55:07;21.10;66.30
32524;DHT22;18965;52.242;20.886;2023-05-25T09:00:24;21.10;66.00
32524;DHT22;18965;52.242;20.886;2023-05-25T09:03:06;21.20;66.00
32524;DHT22;18965;52.242;20.886;2023-05-25T09:05:34;21.20;65.80
32524;DHT22;18965;52.242;20.886;2023-05-25T09:08:08;21.30;65.70
32524;DHT22;18965;52.242;20.886;2023-05-25T09:14:00;21.40;65.30
32524;DHT22;18965;52.242;20.886;2023-05-25T09:16:27;21.50;65.10
32524;DHT22;18965;52.242;20.886;2023-05-25T09:18:55;21.70;65.00
32524;DHT22;18965;52.242;20.886;2023-05-25T09:21:21;21.80;64.80
32524;DHT22;18965;52.242;20.886;2023-05-25T09:23:49;22.00;64.40
32524;DHT22;18965;52.242;20.886;2023-05-25T09:26:15;22.10;64.20
32524;DHT22;18965;52.242;20.886;2023-05-25T09:28:46;22.20;64.00
32524;DHT22;18965;52.242;20.886;2023-05-25T09:31:14;22.30;63.50
32524;DHT22;18965;52.242;20.886;2023-05-25T09:33:42;22.30;63.30
32524;DHT22;18965;52.242;20.886;2023-05-25T09:36:11;22.40;63.50
32524;DHT22;18965;52.242;20.886;2023-05-25T09:38:40;22.40;63.00
32524;DHT22;18965;52.242;20.886;2023-05-25T09:41:07;22.50;62.60
32524;DHT22;18965;52.242;20.886;2023-05-25T09:43:34;22.50;62.40
32524;DHT22;18965;52.242;20.886;2023-05-25T09:46:01;22.60;62.10
32524;DHT22;18965;52.242;20.886;2023-05-25T09:48:27;22.60;61.80
32524;DHT22;18965;52.242;20.886;2023-05-25T09:50:55;22.60;61.70
32524;DHT22;18965;52.242;20.886;2023-05-25T09:53:22;22.60;61.40
32524;DHT22;18965;52.242;20.886;2023-05-25T09:55:50;22.60;61.40
32524;DHT22;18965;52.242;20.886;2023-05-25T09:58:17;22.60;61.20
32524;DHT22;18965;52.242;20.886;2023-05-25T10:04:06;22.60;61.00
32524;DHT22;18965;52.242;20.886;2023-05-25T10:06:33;22.50;61.10
32524;DHT22;18965;52.242;20.886;2023-05-25T10:09:00;22.50;61.30
32524;DHT22;18965;52.242;20.886;2023-05-25T10:11:31;22.40;61.40
32524;DHT22;18965;52.242;20.886;2023-05-25T10:14:05;22.30;61.60
32524;DHT22;18965;52.242;20.886;2023-05-25T10:16:33;22.30;61.70
32524;DHT22;18965;52.242;20.886;2023-05-25T10:19:09;22.20;61.70
32524;DHT22;18965;52.242;20.886;2023-05-25T10:21:39;22.10;61.90
32524;DHT22;18965;52.242;20.886;2023-05-25T10:24:17;22.10;62.00
32524;DHT22;18965;52.242;20.886;2023-05-25T10:26:53;22.00;62.00
32524;DHT22;18965;52.242;20.886;2023-05-25T10:29:24;22.00;62.30
32524;DHT22;18965;52.242;20.886;2023-05-25T10:31:53;21.90;62.40
32524;DHT22;18965;52.242;20.886;2023-05-25T10:34:21;21.90;62.70
32524;DHT22;18965;52.242;20.886;2023-05-25T10:36:47;21.90;62.90
32524;DHT22;18965;52.242;20.886;2023-05-25T10:39:15;21.90;62.90
32524;DHT22;18965;52.242;20.886;2023-05-25T10:41:43;21.90;62.70
32524;DHT22;18965;52.242;20.886;2023-05-25T10:44:10;21.90;62.70
32524;DHT22;18965;52.242;20.886;2023-05-25T10:46:37;21.90;62.60
32524;DHT22;18965;52.242;20.886;2023-05-25T10:49:03;21.90;62.60
32524;DHT22;18965;52.242;20.886;2023-05-25T10:51:38;21.90;62.60
32524;DHT22;18965;52.242;20.886;2023-05-25T10:54:04;22.00;62.60
32524;DHT22;18965;52.242;20.886;2023-05-25T10:56:31;22.00;62.40
32524;DHT22;18965;52.242;20.886;2023-05-25T10:58:58;22.10;62.60
32524;DHT22;18965;52.242;20.886;2023-05-25T11:01:25;22.20;62.60
32524;DHT22;18965;52.242;20.886;2023-05-25T11:03:56;22.30;62.80
32524;DHT22;18965;52.242;20.886;2023-05-25T11:09:35;22.50;62.40
32524;DHT22;18965;52.242;20.886;2023-05-25T11:12:06;22.70;61.80
32524;DHT22;18965;52.242;20.886;2023-05-25T11:14:33;22.80;61.80
32524;DHT22;18965;52.242;20.886;2023-05-25T11:17:09;23.00;61.70
32524;DHT22;18965;52.242;20.886;2023-05-25T11:19:54;23.10;61.40
32524;DHT22;18965;52.242;20.886;2023-05-25T11:22:31;23.30;62.10
32524;DHT22;18965;52.242;20.886;2023-05-25T11:24:59;23.50;63.10
32524;DHT22;18965;52.242;20.886;2023-05-25T11:27:30;23.60;61.70
32524;DHT22;18965;52.242;20.886;2023-05-25T11:29:58;23.80;61.70
32524;DHT22;18965;52.242;20.886;2023-05-25T11:32:25;23.80;60.90
32524;DHT22;18965;52.242;20.886;2023-05-25T11:34:52;23.90;60.30
32524;DHT22;18965;52.242;20.886;2023-05-25T11:37:21;23.90;60.20
32524;DHT22;18965;52.242;20.886;2023-05-25T11:39:52;23.90;60.30
32524;DHT22;18965;52.242;20.886;2023-05-25T11:42:21;24.00;60.00
32524;DHT22;18965;52.242;20.886;2023-05-25T11:44:49;24.10;59.90
32524;DHT22;18965;52.242;20.886;2023-05-25T11:47:15;24.10;60.10
32524;DHT22;18965;52.242;20.886;2023-05-25T11:49:48;24.10;60.30
32524;DHT22;18965;52.242;20.886;2023-05-25T11:52:17;24.10;60.40
32524;DHT22;18965;52.242;20.886;2023-05-25T11:54:45;24.10;60.50
32524;DHT22;18965;52.242;20.886;2023-05-25T11:57:19;24.10;60.20
32524;DHT22;18965;52.242;20.886;2023-05-25T11:59:51;24.10;60.50
32524;DHT22;18965;52.242;20.886;2023-05-25T12:02:19;24.10;60.60
32524;DHT22;18965;52.242;20.886;2023-05-25T12:05:12;24.20;60.70
32524;DHT22;18965;52.242;20.886;2023-05-25T12:07:44;24.20;60.40
32524;DHT22;18965;52.242;20.886;2023-05-25T12:10:13;24.20;59.90
32524;DHT22;18965;52.242;20.886;2023-05-25T12:12:46;24.20;59.90
32524;DHT22;18965;52.242;20.886;2023-05-25T12:15:23;24.20;60.20
32524;DHT22;18965;52.242;20.886;2023-05-25T12:17:51;24.20;60.10
32524;DHT22;18965;52.242;20.886;2023-05-25T12:20:19;24.30;60.30
32524;DHT22;18965;52.242;20.886;2023-05-25T12:22:46;24.40;60.40
32524;DHT22;18965;52.242;20.886;2023-05-25T12:25:18;24.50;60.10
32524;DHT22;18965;52.242;20.886;2023-05-25T12:27:45;24.50;59.90
32524;DHT22;18965;52.242;20.886;2023-05-25T12:30:12;24.60;59.40
32524;DHT22;18965;52.242;20.886;2023-05-25T12:33:01;24.60;59.10
32524;DHT22;18965;52.242;20.886;2023-05-25T12:35:28;24.60;58.70
32524;DHT22;18965;52.242;20.886;2023-05-25T12:38:11;24.60;59.00
32524;DHT22;18965;52.242;20.886;2023-05-25T12:40:39;24.70;58.80
32524;DHT22;18965;52.242;20.886;2023-05-25T12:43:05;24.70;58.70
32524;DHT22;18965;52.242;20.886;2023-05-25T12:45:32;24.60;58.80
32524;DHT22;18965;52.242;20.886;2023-05-25T12:47:58;24.60;58.80
32524;DHT22;18965;52.242;20.886;2023-05-25T12:50:26;24.60;58.90
32524;DHT22;18965;52.242;20.886;2023-05-25T12:53:00;24.60;58.60
32524;DHT22;18965;52.242;20.886;2023-05-25T12:55:33;24.50;59.30
32524;DHT22;18965;52.242;20.886;2023-05-25T12:58:05;24.50;59.30
32524;DHT22;18965;52.242;20.886;2023-05-25T13:00:34;24.60;59.60
32524;DHT22;18965;52.242;20.886;2023-05-25T13:03:02;24.70;59.70
32524;DHT22;18965;52.242;20.886;2023-05-25T13:05:31;24.80;59.50
32524;DHT22;18965;52.242;20.886;2023-05-25T13:07:58;24.90;59.80
32524;DHT22;18965;52.242;20.886;2023-05-25T13:10:28;24.90;58.70
32524;DHT22;18965;52.242;20.886;2023-05-25T13:12:55;25.00;58.60
32524;DHT22;18965;52.242;20.886;2023-05-25T13:15:24;25.10;58.70
32524;DHT22;18965;52.242;20.886;2023-05-25T13:17:52;25.10;58.10
32524;DHT22;18965;52.242;20.886;2023-05-25T13:20:20;25.10;57.90
32524;DHT22;18965;52.242;20.886;2023-05-25T13:22:48;25.20;58.10
32524;DHT22;18965;52.242;20.886;2023-05-25T13:25:15;25.30;57.70
32524;DHT22;18965;52.242;20.886;2023-05-25T13:27:46;25.40;58.00
32524;DHT22;18965;52.242;20.886;2023-05-25T13:30:13;25.50;57.60
32524;DHT22;18965;52.242;20.886;2023-05-25T13:32:41;25.50;56.90
32524;DHT22;18965;52.242;20.886;2023-05-25T13:35:11;25.50;56.40
32524;DHT22;18965;52.242;20.886;2023-05-25T13:37:45;25.40;56.40
32524;DHT22;18965;52.242;20.886;2023-05-25T13:40:12;25.30;56.60
32524;DHT22;18965;52.242;20.886;2023-05-25T13:42:39;25.30;56.60
32524;DHT22;18965;52.242;20.886;2023-05-25T13:45:07;25.30;56.20
32524;DHT22;18965;52.242;20.886;2023-05-25T13:47:33;25.30;56.30
32524;DHT22;18965;52.242;20.886;2023-05-25T13:50:00;25.30;56.40
32524;DHT22;18965;52.242;20.886;2023-05-25T13:52:27;25.30;56.20
32524;DHT22;18965;52.242;20.886;2023-05-25T13:54:53;25.30;56.00
32524;DHT22;18965;52.242;20.886;2023-05-25T13:57:20;25.30;56.20
32524;DHT22;18965;52.242;20.886;2023-05-25T13:59:47;25.20;55.80
32524;DHT22;18965;52.242;20.886;2023-05-25T14:02:14;25.10;55.70
32524;DHT22;18965;52.242;20.886;2023-05-25T14:04:40;25.10;56.20
32524;DHT22;18965;52.242;20.886;2023-05-25T14:07:06;25.10;56.20
32524;DHT22;18965;52.242;20.886;2023-05-25T14:09:33;25.10;55.90
32524;DHT22;18965;52.242;20.886;2023-05-25T14:12:00;25.10;55.90
32524;DHT22;18965;52.242;20.886;2023-05-25T14:14:27;25.10;56.20
32524;DHT22;18965;52.242;20.886;2023-05-25T14:16:54;25.10;56.10
32524;DHT22;18965;52.242;20.886;2023-05-25T14:19:21;25.20;56.00
32524;DHT22;18965;52.242;20.886;2023-05-25T14:21:48;25.20;56.40
32524;DHT22;18965;52.242;20.886;2023-05-25T14:24:15;25.20;56.30
32524;DHT22;18965;52.242;20.886;2023-05-25T14:26:42;25.20;55.90
32524;DHT22;18965;52.242;20.886;2023-05-25T14:29:09;25.30;55.70
32524;DHT22;18965;52.242;20.886;2023-05-25T14:31:35;25.30;55.60
32524;DHT22;18965;52.242;20.886;2023-05-25T14:34:02;25.20;55.30
32524;DHT22;18965;52.242;20.886;2023-05-25T14:36:28;25.20;55.40
32524;DHT22;18965;52.242;20.886;2023-05-25T14:38:54;25.10;55.50
32524;DHT22;18965;52.242;20.886;2023-05-25T14:41:21;25.10;55.80
32524;DHT22;18965;52.242;20.886;2023-05-25T14:43:47;25.10;55.90
32524;DHT22;18965;52.242;20.886;2023-05-25T14:46:14;25.10;55.90
32524;DHT22;18965;52.242;20.886;2023-05-25T14:48:41;25.10;56.00
32524;DHT22;18965;52.242;20.886;2023-05-25T14:51:07;25.10;56.00
32524;DHT22;18965;52.242;20.886;2023-05-25T14:53:34;25.10;55.90
32524;DHT22;18965;52.242;20.886;2023-05-25T14:56:01;25.10;55.80
32524;DHT22;18965;52.242;20.886;2023-05-25T14:58:29;25.10;55.70
32524;DHT22;18965;52.242;20.886;2023-05-25T15:00:57;25.10;55.60
32524;DHT22;18965;52.242;20.886;2023-05-25T15:03:23;25.20;55.50
32524;DHT22;18965;52.242;20.886;2023-05-25T15:05:50;25.30;55.60
32524;DHT22;18965;52.242;20.886;2023-05-25T15:08:17;25.30;55.60
32524;DHT22;18965;52.242;20.886;2023-05-25T15:10:44;25.40;55.30
32524;DHT22;18965;52.242;20.886;2023-05-25T15:13:10;25.50;55.30
32524;DHT22;18965;52.242;20.886;2023-05-25T15:15:36;25.60;56.10
32524;DHT22;18965;52.242;20.886;2023-05-25T15:18:03;25.70;55.20
32524;DHT22;18965;52.242;20.886;2023-05-25T15:20:30;25.80;54.60
32524;DHT22;18965;52.242;20.886;2023-05-25T15:22:57;25.90;54.40
32524;DHT22;18965;52.242;20.886;2023-05-25T15:25:23;26.00;54.20
32524;DHT22;18965;52.242;20.886;2023-05-25T15:27:50;26.10;54.20
32524;DHT22;18965;52.242;20.886;2023-05-25T15:30:17;26.10;53.90
32524;DHT22;18965;52.242;20.886;2023-05-25T15:32:44;26.10;53.80
32524;DHT22;18965;52.242;20.886;2023-05-25T15:35:11;26.10;53.40
32524;DHT22;18965;52.242;20.886;2023-05-25T15:37:37;26.10;53.10
32524;DHT22;18965;52.242;20.886;2023-05-25T15:40:04;26.10;53.10
32524;DHT22;18965;52.242;20.886;2023-05-25T15:42:30;26.10;53.30